AGROMETEOROLOŠKI PORTAL

vinorodna pokrajina

Temelj dobrega kmetovanja

Pregled podatkov za lokacijo CERKLJE - LETALIŠČE ARSO, meteorološka postaja 112

Pregled senzorjev na lokaciji

ID Ime Zadnja
vrednost
Datum in čas
meritve
(lokalni čas)
Tip
senzorja
6028 Zračni tlak (hPa) 1014 hPa 4.2.2023 23:00 ARSO
2639 Sončno sevanje (W/m2) 3 W/m2 4.2.2023 23:00 ARSO
2645 Padavine (mm) 0 mm 4.2.2023 23:00 ARSO
2653 Relativna zračna vlaga (2 m) (% RH) 56 % RH 4.2.2023 23:00 ARSO
5934 Temperatura tal (5 cm) (°C) 0 °C 4.2.2023 23:00 ARSO
5935 Temperatura tal (10 cm) (°C) 0 °C 4.2.2023 23:00 ARSO
5936 Temperatura tal (30 cm) (°C) 2,9 °C 4.2.2023 23:00 ARSO
2652 Temperatura (2 m) (°C) -0,2 °C 4.2.2023 23:00 ARSO
2657 Smer vetra (2 m) (°) 86 ° 4.2.2023 23:00 ARSO
2658 Hitrost vetra (2 m) (km/h) 19 km/h 4.2.2023 23:00 ARSO

Pregled podatkov zadnjih 24 ur

Zap.
št.
Datum in čas
(lokalni čas)
CERKLJE - LETALIŠČE ARSO
Zračni
tlak
Sončno
sevanje
Padavine Relativna
zračna
vlaga
(2
m)
Temperatura
tal
(5
cm)
Temperatura
tal
(10
cm)
Temperatura
tal
(30
cm)
Temperatura
(2
m)
Smer
vetra
(2
m)
Hitrost
vetra
(2
m)
1 4.2.2023 23:00 1013,8 3 0 56 0 0 2,9 -0,2 86 19
2 4.2.2023 22:30 1013,9 1 0 52 0 0 3,1 0,7 88 19
3 4.2.2023 22:00 1013,8 2 0 56 0 0 3,2 0,4 91 18
4 4.2.2023 21:30 1013,5 1 0 56 0 0 3,3 0,5 92 18
5 4.2.2023 21:00 1013,3 2 0 57 0 0 3,5 0,3 100 15
6 4.2.2023 20:30 1013,1 1 0 54 0 0 3,6 1,1 98 20
7 4.2.2023 20:00 1012,8 3 0 53 0 0 3,8 1,4 95 21
8 4.2.2023 19:30 1012,3 3 0 44 0 0 4 3,1 81 18
9 4.2.2023 19:00 1011,7 2 0 40 0 0 4,3 3,7 78 16
10 4.2.2023 18:30 1011,1 1 0 39 0 0 4,5 4,2 71 17
11 4.2.2023 18:00 1010,6 2 0 37 0 0 4,8 4,8 55 17
12 4.2.2023 17:30 1010 5 0 37 0 0 5 5,1 58 17
13 4.2.2023 17:00 1009,4 28 0 35 0 0 5,2 5,8 47 19
14 4.2.2023 16:30 1008,9 84 0 34 0 0 5,4 6,3 47 25
15 4.2.2023 16:00 1008,5 163 0,2 33 0 0 5,5 6,8 43 25
16 4.2.2023 15:30 1008 245 0,1 33 0 0 5,5 7,2 36 23
17 4.2.2023 15:00 1007,4 323 0,1 33 0 0 5,4 7,6 27 25
18 4.2.2023 14:30 1006,7 387 0 34 0 0 5,2 8 26 26
19 4.2.2023 14:00 1006,1 430 0 34 0 0 5 8,6 24 25
20 4.2.2023 13:30 1005,6 460 0 34 0 0 4,7 8,9 30 25
21 4.2.2023 13:00 1004,9 489 0,1 34 0 0 4,3 9,6 26 23
22 4.2.2023 12:30 1004,6 510 0 34 0 0 3,9 9,5 6 26
23 4.2.2023 12:00 1004,1 514 0 39 0 0 3,6 9,5 7 25
24 4.2.2023 11:30 1004,2 0,1 42 9,2
25 4.2.2023 11:00 1003,7 0,1 44 9,5
26 4.2.2023 10:30 1002,7 0 39 10,1
27 4.2.2023 10:00 1001,8 0 35 10,6
28 4.2.2023 09:30 1001,1 0 38 10
29 4.2.2023 09:00 1000,6 179 0 46 0 0 2,3 8,2 332 24
30 4.2.2023 08:30 1000,7 96 0 71 0 0 2,3 3,6 281 15
31 4.2.2023 08:00 1000,4 76 0 88 0 0 2,3 0,5 235 8
32 4.2.2023 07:30 999,9 3 0 94 0 0 2,4 -0,7 196 7
33 4.2.2023 07:00 999,4 2 0 94 0 0 2,4 -1,6 182 5
34 4.2.2023 06:30 998,8 2 0 93 0 0 2,5 -1 271 6
35 4.2.2023 06:00 998,7 2 0 93 0 0 2,6 -0,1 292 6
36 4.2.2023 05:30 998,9 1 0 94 0 0 2,6 -1 249 8
37 4.2.2023 05:00 998,9 1 0 94 0 0 2,7 -1,1 206 5
38 4.2.2023 04:30 998,7 2 0 94 0 0 2,8 -0,9 106 4
39 4.2.2023 04:00 998,5 2 0 93 0 0 2,9 -1,4 270 5
40 4.2.2023 03:30 998,6 2 0 92 0 0 3 0,4 312 4
41 4.2.2023 03:00 998,5 2 0 91 0 0 3,2 0,9 147 3
42 4.2.2023 02:30 998,5 1 0 90 0 0 3,3 1,3 225 3
43 4.2.2023 02:00 998,5 4 0 86 0 0 3,5 1,7 256 6
44 4.2.2023 01:30 998,5 2 0 83 0 0 3,6 3,4 92 4
45 4.2.2023 01:00 998,5 3 0 84 0 0 3,8 3,3 42 6
46 4.2.2023 00:30 998,4 2 0 81 0 0 3,9 4,3 301 13
47 4.2.2023 00:00 998,3 3 0 77 0 0 4 5,2 268 12
48 3.2.2023 23:30 998,5 2 0 72 0 0 4 6,7 248 10